PPAv_TAF

TAF - Interpretação

 

Terminal Aerodrome Forecast, ou simplesmente TAF é uma previsão de elementos meteorológicos para determinado aeródromo, confeccionada por um Centro Meteorológico de Aeródromo/Classe 1, quatro vezes ao dia, ou seja, a cada 6 horas. 


Grupo 1
O primeiro grupo do TAF traz simplesmente a abreviatura que identifica o código. Porém, é bom lembrar da diferença da validade de 24 horas para aeródromos internacionais e de 12 horas para os aeródromos domésticos.
TAF 

Grupo 2

Este grupo apresenta o indicador de localidade do aeródromo ao qual se refere o código. A relação dos indicadores de localidade pode ser encontrada na publicação ROTAER, nas "AIS" dos aeródromos que dispõem do Serviço Fixo Aeronáutico. 

TAF SBGR

Grupo 3
O Grupo Data/hora indica o dia e a hora zulu, em que foi registrada a observação.

TAF SBGR 012000Z 

Grupo 4
Este é o grupo que indica o Período de validade da previsão. No exemplo dado, inicia-se às zero horas do dia 02 e termina às 24 horas do dia 03. Trata-se de um aeródromo internacional. 

TAF SBGR 012000Z 020024

Grupo 5 
Este grupo apresenta a direção e a intensidade do vento na superfície. Cabe lembrar que a direção é dada com referência ao Norte Verdadeiro e a intensidade em nós.

TAF SBGR 012000Z 020024 10005KT

Grupo 6
O Grupo que estamos estudando é o grupo da visibilidade horizontal. A informação é dada em quatro algarismos em metros. Cabe ressaltar que quando este grupo trouxer a indicação 9999, isso indicará uma visibilidade superior a 10.000 metros.

TAF SBGR 012000Z 020024 10005KT 9999

Grupo 7
A indicação neste grupo mostra Tempo presente significativo, como é o caso do nosso exemplo. 

TAF SBGR 012000Z 020024 10005KT 9999 -RA

Grupo 8
Grupo informativo de nebulosidade. Neste grupo serão informadas as nuvens que estão sobre o aeródromo ou a altura de nevoeiro de céu obscurecido.

TAF SBGR 012000Z 020024 10005KT 9999 - RA SCT025 SCT100

Grupo 9
Previsão de formação de gelo

. TAF SBGR 012000Z 020024 10005KT 9999 - RA SCT025 SCT100 611001

Grupo 10
Previsão de turbulência

TAF SBGR 012000Z 020024 10005KT 9999 - RA SCT025 SCT100 611001523005

Grupo 11
Previsão de temperatura, máxima e mínima para o horário.

TAF SBGR 012000Z 020024 10005KT 9999 - RA SCT025 SCT100 611001 523005 T28/18Z T20/09Z

Grupo 12
Os Grupos de mudanças - Serão utilizados quando forem previstas alterações em um ou mais elementos previstos no corpo principal do código. 

FM
Quando um conjunto de condições de tempo prevalecente for esperado mudar significativamente para um outro conjunto de condições, o indicador FM será usado par indicar o início de uma parte independente da previsão (FM = from (a partir de)), seguido da hora.

Todas as condições dadas antes deste grupo , serão substituídas pelas novas condições previstas.

TAF SBGR 012000Z 020024 10005KT 9999 - RA SCT025 SCT100 611001 523005 FM1800 27017 4000 +SHRA BKN025 T28/18Z T20/09Z=

BECMG
Os grupos Becmg indicam uma mudança regular ou irregular para as condições previstas num momento qualquer dentro do período . Este período normalmente não excederá duas horas. 

A não ser que outros grupos sejam usados, as condições dadas após BECMG GGGeGe (hora) deverão permanecer a partir de GeGe até o fim do período.

TAF SBGR 012000Z 020024 10005KT 9999 - RA SCT025 SCT100 BECMG 0002 4000 BKN025 T28/18Z T20/09Z =

TEMPO
Os grupos TEMPO GGGeGe , indicam flutuações temporárias nas condições que podem ocorrer a qualquer momento durante o período GGGeGe.

TAF SBGR 012000Z 020024 10005KT 9999 - RA SCT025 SCT100 TEMPO 1824 4000 +SHRA BKN025 T28/18Z T20/09Z =

PROB
Quando a confiança nos valores alternativos da previsão não for suficiente mas o elemento previsto for considerado significativo para as operações , os grupos PROBC2C2 GGGeGe, serão usados. C2C2 indicará a percentagem da probabilidade de ocorrência e somente poderão ser de 30 ou 40%.

TAF SBGR 012000Z 020024 10005KT 9999 - RA SCT025 SCT100 TEMPO 1824 4000 +SHRA BKN025 PROB30 0406 0800 FG T28/18Z T20/09Z =

Copyright © 2018 Todos os direitos reservados. Tropical Linhas Aereas Virtuais

Cms by phpVMS